sensor_id;sensor_type;location;lat;lon;timestamp;P1;durP1;ratioP1;P2;durP2;ratioP2
44137;SDS011;29800;55.942;37.314;2023-12-20T00:00:02;1.10;;;0.40;;
44137;SDS011;29800;55.942;37.314;2023-12-20T00:02:31;0.93;;;0.32;;
44137;SDS011;29800;55.942;37.314;2023-12-20T00:04:57;1.33;;;0.50;;
44137;SDS011;29800;55.942;37.314;2023-12-20T00:07:24;0.47;;;0.40;;
44137;SDS011;29800;55.942;37.314;2023-12-20T00:09:50;2.20;;;0.80;;
44137;SDS011;29800;55.942;37.314;2023-12-20T00:12:16;0.68;;;0.47;;
44137;SDS011;29800;55.942;37.314;2023-12-20T00:14:42;0.85;;;0.40;;
44137;SDS011;29800;55.942;37.314;2023-12-20T00:17:08;1.65;;;0.60;;
44137;SDS011;29800;55.942;37.314;2023-12-20T00:19:34;1.67;;;0.50;;
44137;SDS011;29800;55.942;37.314;2023-12-20T00:22:01;1.48;;;0.50;;
44137;SDS011;29800;55.942;37.314;2023-12-20T00:24:27;0.95;;;0.50;;
44137;SDS011;29800;55.942;37.314;2023-12-20T00:26:53;1.58;;;0.50;;
44137;SDS011;29800;55.942;37.314;2023-12-20T00:29:19;1.20;;;0.50;;
44137;SDS011;29800;55.942;37.314;2023-12-20T00:31:45;0.50;;;0.40;;
44137;SDS011;29800;55.942;37.314;2023-12-20T00:34:11;2.00;;;0.73;;
44137;SDS011;29800;55.942;37.314;2023-12-20T00:36:38;1.73;;;0.47;;
44137;SDS011;29800;55.942;37.314;2023-12-20T00:39:04;1.10;;;0.50;;
44137;SDS011;29800;55.942;37.314;2023-12-20T00:41:30;4.63;;;2.60;;
44137;SDS011;29800;55.942;37.314;2023-12-20T00:43:56;4.25;;;2.75;;
44137;SDS011;29800;55.942;37.314;2023-12-20T00:46:22;9.95;;;7.10;;
44137;SDS011;29800;55.942;37.314;2023-12-20T00:48:48;3.20;;;2.40;;
44137;SDS011;29800;55.942;37.314;2023-12-20T00:51:15;2.20;;;1.20;;
44137;SDS011;29800;55.942;37.314;2023-12-20T00:53:41;1.35;;;0.68;;
44137;SDS011;29800;55.942;37.314;2023-12-20T00:56:07;1.90;;;0.70;;
44137;SDS011;29800;55.942;37.314;2023-12-20T00:58:33;2.78;;;0.85;;
44137;SDS011;29800;55.942;37.314;2023-12-20T01:01:00;1.55;;;0.75;;
44137;SDS011;29800;55.942;37.314;2023-12-20T01:03:26;1.23;;;0.60;;
44137;SDS011;29800;55.942;37.314;2023-12-20T01:05:52;1.27;;;0.47;;
44137;SDS011;29800;55.942;37.314;2023-12-20T01:08:18;1.83;;;0.60;;
44137;SDS011;29800;55.942;37.314;2023-12-20T01:10:44;0.68;;;0.45;;
44137;SDS011;29800;55.942;37.314;2023-12-20T01:13:12;3.78;;;1.48;;
44137;SDS011;29800;55.942;37.314;2023-12-20T01:15:38;2.10;;;1.35;;
44137;SDS011;29800;55.942;37.314;2023-12-20T01:18:04;2.40;;;1.55;;
44137;SDS011;29800;55.942;37.314;2023-12-20T01:20:31;2.38;;;1.15;;
44137;SDS011;29800;55.942;37.314;2023-12-20T01:22:57;1.65;;;1.00;;
44137;SDS011;29800;55.942;37.314;2023-12-20T01:25:23;2.35;;;0.88;;
44137;SDS011;29800;55.942;37.314;2023-12-20T01:27:49;0.95;;;0.50;;
44137;SDS011;29800;55.942;37.314;2023-12-20T01:30:16;0.93;;;0.50;;
44137;SDS011;29800;55.942;37.314;2023-12-20T01:32:42;1.55;;;0.60;;
44137;SDS011;29800;55.942;37.314;2023-12-20T01:35:08;3.13;;;0.60;;
44137;SDS011;29800;55.942;37.314;2023-12-20T01:37:34;1.25;;;0.60;;
44137;SDS011;29800;55.942;37.314;2023-12-20T01:40:00;2.67;;;1.00;;
44137;SDS011;29800;55.942;37.314;2023-12-20T01:42:29;2.00;;;0.80;;
44137;SDS011;29800;55.942;37.314;2023-12-20T01:44:55;2.53;;;1.08;;
44137;SDS011;29800;55.942;37.314;2023-12-20T01:47:21;1.85;;;0.90;;
44137;SDS011;29800;55.942;37.314;2023-12-20T01:49:48;1.92;;;0.80;;
44137;SDS011;29800;55.942;37.314;2023-12-20T01:52:15;3.67;;;1.60;;
44137;SDS011;29800;55.942;37.314;2023-12-20T01:54:42;2.30;;;0.90;;
44137;SDS011;29800;55.942;37.314;2023-12-20T01:57:08;1.40;;;0.68;;
44137;SDS011;29800;55.942;37.314;2023-12-20T01:59:35;2.03;;;0.80;;
44137;SDS011;29800;55.942;37.314;2023-12-20T02:02:02;1.50;;;0.85;;
44137;SDS011;29800;55.942;37.314;2023-12-20T02:04:29;3.25;;;0.88;;
44137;SDS011;29800;55.942;37.314;2023-12-20T02:06:55;1.83;;;1.00;;
44137;SDS011;29800;55.942;37.314;2023-12-20T02:09:23;2.75;;;1.20;;
44137;SDS011;29800;55.942;37.314;2023-12-20T02:11:49;1.83;;;0.90;;
44137;SDS011;29800;55.942;37.314;2023-12-20T02:14:15;2.08;;;1.08;;
44137;SDS011;29800;55.942;37.314;2023-12-20T02:16:42;1.55;;;1.20;;
44137;SDS011;29800;55.942;37.314;2023-12-20T02:19:12;1.90;;;1.00;;
44137;SDS011;29800;55.942;37.314;2023-12-20T02:21:40;2.22;;;1.00;;
44137;SDS011;29800;55.942;37.314;2023-12-20T02:24:06;2.63;;;1.02;;
44137;SDS011;29800;55.942;37.314;2023-12-20T02:26:32;2.28;;;0.77;;
44137;SDS011;29800;55.942;37.314;2023-12-20T02:28:59;2.33;;;0.80;;
44137;SDS011;29800;55.942;37.314;2023-12-20T02:31:26;2.45;;;0.90;;
44137;SDS011;29800;55.942;37.314;2023-12-20T02:33:52;2.83;;;1.63;;
44137;SDS011;29800;55.942;37.314;2023-12-20T02:36:18;4.00;;;2.40;;
44137;SDS011;29800;55.942;37.314;2023-12-20T02:38:44;5.75;;;3.38;;
44137;SDS011;29800;55.942;37.314;2023-12-20T02:41:10;6.32;;;4.10;;
44137;SDS011;29800;55.942;37.314;2023-12-20T02:43:36;42.30;;;27.52;;
44137;SDS011;29800;55.942;37.314;2023-12-20T02:46:03;68.97;;;38.70;;
44137;SDS011;29800;55.942;37.314;2023-12-20T02:48:29;83.63;;;46.63;;
44137;SDS011;29800;55.942;37.314;2023-12-20T02:50:55;69.93;;;38.92;;
44137;SDS011;29800;55.942;37.314;2023-12-20T02:53:21;25.05;;;14.50;;
44137;SDS011;29800;55.942;37.314;2023-12-20T02:55:47;31.15;;;18.30;;
44137;SDS011;29800;55.942;37.314;2023-12-20T02:58:14;28.52;;;15.05;;
44137;SDS011;29800;55.942;37.314;2023-12-20T03:00:40;17.20;;;8.75;;
44137;SDS011;29800;55.942;37.314;2023-12-20T03:03:06;14.48;;;7.13;;
44137;SDS011;29800;55.942;37.314;2023-12-20T03:05:32;8.48;;;4.22;;
44137;SDS011;29800;55.942;37.314;2023-12-20T03:07:58;5.78;;;2.88;;
44137;SDS011;29800;55.942;37.314;2023-12-20T03:10:24;5.68;;;3.70;;
44137;SDS011;29800;55.942;37.314;2023-12-20T03:12:50;11.80;;;6.90;;
44137;SDS011;29800;55.942;37.314;2023-12-20T03:15:17;6.10;;;3.45;;
44137;SDS011;29800;55.942;37.314;2023-12-20T03:17:43;3.30;;;2.05;;
44137;SDS011;29800;55.942;37.314;2023-12-20T03:20:09;1.98;;;1.05;;
44137;SDS011;29800;55.942;37.314;2023-12-20T03:22:35;2.75;;;0.90;;
44137;SDS011;29800;55.942;37.314;2023-12-20T03:25:01;2.63;;;1.02;;
44137;SDS011;29800;55.942;37.314;2023-12-20T03:27:29;1.40;;;0.80;;
44137;SDS011;29800;55.942;37.314;2023-12-20T03:29:55;2.60;;;1.00;;
44137;SDS011;29800;55.942;37.314;2023-12-20T03:32:21;2.15;;;1.00;;
44137;SDS011;29800;55.942;37.314;2023-12-20T03:34:48;1.73;;;1.20;;
44137;SDS011;29800;55.942;37.314;2023-12-20T03:37:14;2.42;;;1.15;;
44137;SDS011;29800;55.942;37.314;2023-12-20T03:39:40;2.88;;;1.00;;
44137;SDS011;29800;55.942;37.314;2023-12-20T03:42:06;2.88;;;1.10;;
44137;SDS011;29800;55.942;37.314;2023-12-20T03:44:32;3.78;;;1.17;;
44137;SDS011;29800;55.942;37.314;2023-12-20T03:46:59;1.52;;;0.90;;
44137;SDS011;29800;55.942;37.314;2023-12-20T03:49:25;3.58;;;0.80;;
44137;SDS011;29800;55.942;37.314;2023-12-20T03:51:51;4.13;;;1.27;;
44137;SDS011;29800;55.942;37.314;2023-12-20T03:54:17;3.38;;;1.80;;
44137;SDS011;29800;55.942;37.314;2023-12-20T03:56:43;4.35;;;2.38;;
44137;SDS011;29800;55.942;37.314;2023-12-20T03:59:10;5.78;;;3.80;;
44137;SDS011;29800;55.942;37.314;2023-12-20T04:01:36;7.75;;;4.18;;
44137;SDS011;29800;55.942;37.314;2023-12-20T04:04:02;7.97;;;4.50;;
44137;SDS011;29800;55.942;37.314;2023-12-20T04:06:28;44.45;;;24.05;;
44137;SDS011;29800;55.942;37.314;2023-12-20T04:08:55;67.68;;;37.42;;
44137;SDS011;29800;55.942;37.314;2023-12-20T04:11:21;84.60;;;44.85;;
44137;SDS011;29800;55.942;37.314;2023-12-20T04:13:47;104.68;;;57.28;;
44137;SDS011;29800;55.942;37.314;2023-12-20T04:16:13;59.88;;;32.22;;
44137;SDS011;29800;55.942;37.314;2023-12-20T04:18:39;63.95;;;33.20;;
44137;SDS011;29800;55.942;37.314;2023-12-20T04:21:05;51.35;;;26.60;;
44137;SDS011;29800;55.942;37.314;2023-12-20T04:23:32;65.20;;;34.85;;
44137;SDS011;29800;55.942;37.314;2023-12-20T04:25:58;28.40;;;15.40;;
44137;SDS011;29800;55.942;37.314;2023-12-20T04:28:25;23.83;;;14.35;;
44137;SDS011;29800;55.942;37.314;2023-12-20T04:30:51;15.05;;;8.93;;
44137;SDS011;29800;55.942;37.314;2023-12-20T04:33:17;13.50;;;8.13;;
44137;SDS011;29800;55.942;37.314;2023-12-20T04:35:43;5.90;;;3.53;;
44137;SDS011;29800;55.942;37.314;2023-12-20T04:38:11;4.63;;;2.72;;
44137;SDS011;29800;55.942;37.314;2023-12-20T04:40:37;3.55;;;1.60;;
44137;SDS011;29800;55.942;37.314;2023-12-20T04:43:04;3.13;;;1.23;;
44137;SDS011;29800;55.942;37.314;2023-12-20T04:45:31;2.85;;;1.20;;
44137;SDS011;29800;55.942;37.314;2023-12-20T04:47:57;2.28;;;1.10;;
44137;SDS011;29800;55.942;37.314;2023-12-20T04:50:23;3.03;;;1.10;;
44137;SDS011;29800;55.942;37.314;2023-12-20T04:52:49;2.90;;;1.00;;
44137;SDS011;29800;55.942;37.314;2023-12-20T04:55:16;3.33;;;0.80;;
44137;SDS011;29800;55.942;37.314;2023-12-20T04:57:43;2.50;;;0.80;;
44137;SDS011;29800;55.942;37.314;2023-12-20T05:00:10;3.28;;;0.90;;
44137;SDS011;29800;55.942;37.314;2023-12-20T05:02:36;2.85;;;0.90;;
44137;SDS011;29800;55.942;37.314;2023-12-20T05:05:03;3.13;;;0.93;;
44137;SDS011;29800;55.942;37.314;2023-12-20T05:07:30;3.53;;;1.02;;
44137;SDS011;29800;55.942;37.314;2023-12-20T05:09:56;3.28;;;1.10;;
44137;SDS011;29800;55.942;37.314;2023-12-20T05:12:22;2.78;;;1.60;;
44137;SDS011;29800;55.942;37.314;2023-12-20T05:14:48;6.13;;;4.47;;
44137;SDS011;29800;55.942;37.314;2023-12-20T05:17:14;9.43;;;7.30;;
44137;SDS011;29800;55.942;37.314;2023-12-20T05:19:41;6.20;;;5.60;;
44137;SDS011;29800;55.942;37.314;2023-12-20T05:22:07;3.83;;;1.90;;
44137;SDS011;29800;55.942;37.314;2023-12-20T05:24:33;2.72;;;1.10;;
44137;SDS011;29800;55.942;37.314;2023-12-20T05:26:59;2.78;;;0.85;;
44137;SDS011;29800;55.942;37.314;2023-12-20T05:29:26;2.63;;;0.70;;
44137;SDS011;29800;55.942;37.314;2023-12-20T05:31:52;2.63;;;0.93;;
44137;SDS011;29800;55.942;37.314;2023-12-20T05:34:18;2.30;;;1.13;;
44137;SDS011;29800;55.942;37.314;2023-12-20T05:36:45;3.35;;;2.67;;
44137;SDS011;29800;55.942;37.314;2023-12-20T05:39:11;1.35;;;0.98;;
44137;SDS011;29800;55.942;37.314;2023-12-20T05:41:37;1.88;;;0.80;;
44137;SDS011;29800;55.942;37.314;2023-12-20T05:44:03;1.40;;;0.60;;
44137;SDS011;29800;55.942;37.314;2023-12-20T05:46:30;3.20;;;0.82;;
44137;SDS011;29800;55.942;37.314;2023-12-20T05:48:56;2.30;;;0.90;;
44137;SDS011;29800;55.942;37.314;2023-12-20T05:51:22;4.22;;;1.00;;
44137;SDS011;29800;55.942;37.314;2023-12-20T05:53:48;2.53;;;0.90;;
44137;SDS011;29800;55.942;37.314;2023-12-20T05:56:15;3.65;;;1.23;;
44137;SDS011;29800;55.942;37.314;2023-12-20T05:58:41;2.50;;;1.30;;
44137;SDS011;29800;55.942;37.314;2023-12-20T06:01:07;1.50;;;0.93;;
44137;SDS011;29800;55.942;37.314;2023-12-20T06:03:34;3.15;;;1.60;;
44137;SDS011;29800;55.942;37.314;2023-12-20T06:06:04;8.63;;;5.95;;
44137;SDS011;29800;55.942;37.314;2023-12-20T06:08:32;15.25;;;9.63;;
44137;SDS011;29800;55.942;37.314;2023-12-20T06:10:58;5.10;;;2.90;;
44137;SDS011;29800;55.942;37.314;2023-12-20T06:13:25;3.88;;;1.92;;
44137;SDS011;29800;55.942;37.314;2023-12-20T06:15:51;3.25;;;1.60;;
44137;SDS011;29800;55.942;37.314;2023-12-20T06:18:17;4.40;;;1.80;;
44137;SDS011;29800;55.942;37.314;2023-12-20T06:20:43;3.30;;;1.65;;
44137;SDS011;29800;55.942;37.314;2023-12-20T06:23:10;7.10;;;1.88;;
44137;SDS011;29800;55.942;37.314;2023-12-20T06:25:36;6.70;;;1.80;;
44137;SDS011;29800;55.942;37.314;2023-12-20T06:28:03;3.13;;;1.55;;
44137;SDS011;29800;55.942;37.314;2023-12-20T06:30:30;5.40;;;1.83;;
44137;SDS011;29800;55.942;37.314;2023-12-20T06:32:58;3.25;;;1.33;;
44137;SDS011;29800;55.942;37.314;2023-12-20T06:35:24;10.57;;;6.50;;
44137;SDS011;29800;55.942;37.314;2023-12-20T06:37:51;9.13;;;5.03;;
44137;SDS011;29800;55.942;37.314;2023-12-20T06:40:17;9.57;;;6.22;;
44137;SDS011;29800;55.942;37.314;2023-12-20T06:42:44;9.57;;;4.57;;
44137;SDS011;29800;55.942;37.314;2023-12-20T06:45:11;10.48;;;7.20;;
44137;SDS011;29800;55.942;37.314;2023-12-20T06:47:38;8.52;;;5.47;;
44137;SDS011;29800;55.942;37.314;2023-12-20T06:50:05;5.22;;;2.83;;
44137;SDS011;29800;55.942;37.314;2023-12-20T06:52:31;10.25;;;5.57;;
44137;SDS011;29800;55.942;37.314;2023-12-20T06:54:57;7.55;;;4.47;;
44137;SDS011;29800;55.942;37.314;2023-12-20T06:57:23;6.13;;;2.92;;
44137;SDS011;29800;55.942;37.314;2023-12-20T06:59:52;4.57;;;1.80;;
44137;SDS011;29800;55.942;37.314;2023-12-20T07:02:18;5.82;;;1.70;;
44137;SDS011;29800;55.942;37.314;2023-12-20T07:04:45;4.78;;;2.05;;
44137;SDS011;29800;55.942;37.314;2023-12-20T07:07:12;4.15;;;2.13;;
44137;SDS011;29800;55.942;37.314;2023-12-20T07:09:38;7.68;;;4.55;;
44137;SDS011;29800;55.942;37.314;2023-12-20T07:12:04;6.05;;;3.45;;
44137;SDS011;29800;55.942;37.314;2023-12-20T07:14:30;4.35;;;2.10;;
44137;SDS011;29800;55.942;37.314;2023-12-20T07:16:57;4.95;;;2.20;;
44137;SDS011;29800;55.942;37.314;2023-12-20T07:19:23;4.85;;;2.08;;
44137;SDS011;29800;55.942;37.314;2023-12-20T07:21:49;3.28;;;1.90;;
44137;SDS011;29800;55.942;37.314;2023-12-20T07:24:15;5.22;;;2.17;;
44137;SDS011;29800;55.942;37.314;2023-12-20T07:26:42;5.35;;;2.30;;
44137;SDS011;29800;55.942;37.314;2023-12-20T07:29:08;5.30;;;2.20;;
44137;SDS011;29800;55.942;37.314;2023-12-20T07:31:34;5.05;;;2.30;;
44137;SDS011;29800;55.942;37.314;2023-12-20T07:34:01;5.85;;;2.35;;
44137;SDS011;29800;55.942;37.314;2023-12-20T07:36:27;4.38;;;2.30;;
44137;SDS011;29800;55.942;37.314;2023-12-20T07:38:53;6.28;;;2.67;;
44137;SDS011;29800;55.942;37.314;2023-12-20T07:41:20;6.43;;;3.60;;
44137;SDS011;29800;55.942;37.314;2023-12-20T07:43:47;10.82;;;2.65;;
44137;SDS011;29800;55.942;37.314;2023-12-20T07:46:13;5.72;;;2.25;;
44137;SDS011;29800;55.942;37.314;2023-12-20T07:48:39;5.28;;;2.25;;
44137;SDS011;29800;55.942;37.314;2023-12-20T07:51:06;4.50;;;2.22;;
44137;SDS011;29800;55.942;37.314;2023-12-20T07:53:35;6.03;;;2.15;;
44137;SDS011;29800;55.942;37.314;2023-12-20T07:56:01;5.53;;;1.90;;
44137;SDS011;29800;55.942;37.314;2023-12-20T07:58:27;3.38;;;1.90;;
44137;SDS011;29800;55.942;37.314;2023-12-20T08:00:55;4.80;;;1.92;;
44137;SDS011;29800;55.942;37.314;2023-12-20T08:03:21;4.47;;;1.92;;
44137;SDS011;29800;55.942;37.314;2023-12-20T08:05:48;5.53;;;2.55;;
44137;SDS011;29800;55.942;37.314;2023-12-20T08:08:14;6.88;;;1.92;;
44137;SDS011;29800;55.942;37.314;2023-12-20T08:10:40;5.45;;;2.00;;
44137;SDS011;29800;55.942;37.314;2023-12-20T08:46:06;6.78;;;4.43;;
44137;SDS011;29800;55.942;37.314;2023-12-20T08:48:32;6.43;;;2.63;;
44137;SDS011;29800;55.942;37.314;2023-12-20T08:50:58;4.70;;;2.28;;
44137;SDS011;29800;55.942;37.314;2023-12-20T08:53:24;5.05;;;2.80;;
44137;SDS011;29800;55.942;37.314;2023-12-20T08:55:51;4.25;;;2.40;;
44137;SDS011;29800;55.942;37.314;2023-12-20T08:58:17;5.65;;;2.60;;
44137;SDS011;29800;55.942;37.314;2023-12-20T09:00:44;5.32;;;2.30;;
44137;SDS011;29800;55.942;37.314;2023-12-20T09:03:11;4.18;;;2.10;;
44137;SDS011;29800;55.942;37.314;2023-12-20T09:05:38;5.05;;;2.30;;
44137;SDS011;29800;55.942;37.314;2023-12-20T09:08:04;4.28;;;2.45;;
44137;SDS011;29800;55.942;37.314;2023-12-20T09:10:33;4.70;;;2.20;;
44137;SDS011;29800;55.942;37.314;2023-12-20T09:13:00;3.67;;;2.28;;
44137;SDS011;29800;55.942;37.314;2023-12-20T09:15:26;6.07;;;3.45;;
44137;SDS011;29800;55.942;37.314;2023-12-20T09:17:56;4.97;;;3.00;;
44137;SDS011;29800;55.942;37.314;2023-12-20T09:20:22;5.72;;;2.60;;
44137;SDS011;29800;55.942;37.314;2023-12-20T09:22:49;5.47;;;2.67;;
44137;SDS011;29800;55.942;37.314;2023-12-20T09:25:15;6.05;;;2.40;;
44137;SDS011;29800;55.942;37.314;2023-12-20T09:27:45;4.45;;;2.63;;
44137;SDS011;29800;55.942;37.314;2023-12-20T09:30:11;5.63;;;2.17;;
44137;SDS011;29800;55.942;37.314;2023-12-20T09:32:38;4.47;;;2.00;;
44137;SDS011;29800;55.942;37.314;2023-12-20T09:35:05;3.88;;;2.28;;
44137;SDS011;29800;55.942;37.314;2023-12-20T09:37:32;5.45;;;1.95;;
44137;SDS011;29800;55.942;37.314;2023-12-20T09:39:59;3.95;;;2.15;;
44137;SDS011;29800;55.942;37.314;2023-12-20T09:45:11;3.78;;;2.38;;
44137;SDS011;29800;55.942;37.314;2023-12-20T09:47:42;5.25;;;2.80;;
44137;SDS011;29800;55.942;37.314;2023-12-20T09:50:09;3.50;;;1.95;;
44137;SDS011;29800;55.942;37.314;2023-12-20T09:52:36;3.50;;;2.15;;
44137;SDS011;29800;55.942;37.314;2023-12-20T09:55:06;5.32;;;2.35;;
44137;SDS011;29800;55.942;37.314;2023-12-20T09:57:35;5.03;;;2.10;;
44137;SDS011;29800;55.942;37.314;2023-12-20T10:00:05;5.00;;;3.20;;
44137;SDS011;29800;55.942;37.314;2023-12-20T10:02:59;4.40;;;2.70;;
44137;SDS011;29800;55.942;37.314;2023-12-20T10:05:31;5.45;;;2.50;;
44137;SDS011;29800;55.942;37.314;2023-12-20T10:07:59;2.88;;;1.70;;
44137;SDS011;29800;55.942;37.314;2023-12-20T10:10:27;2.72;;;1.85;;
44137;SDS011;29800;55.942;37.314;2023-12-20T10:13:10;5.82;;;2.33;;
44137;SDS011;29800;55.942;37.314;2023-12-20T10:15:38;4.28;;;1.73;;
44137;SDS011;29800;55.942;37.314;2023-12-20T10:18:05;3.97;;;2.08;;
44137;SDS011;29800;55.942;37.314;2023-12-20T10:20:32;3.17;;;1.60;;
44137;SDS011;29800;55.942;37.314;2023-12-20T10:22:59;3.38;;;1.90;;
44137;SDS011;29800;55.942;37.314;2023-12-20T10:25:27;3.53;;;2.03;;
44137;SDS011;29800;55.942;37.314;2023-12-20T10:28:13;3.05;;;1.50;;
44137;SDS011;29800;55.942;37.314;2023-12-20T10:30:43;2.28;;;1.42;;
44137;SDS011;29800;55.942;37.314;2023-12-20T10:33:10;4.35;;;1.95;;
44137;SDS011;29800;55.942;37.314;2023-12-20T10:35:37;3.38;;;1.55;;
44137;SDS011;29800;55.942;37.314;2023-12-20T10:38:05;3.47;;;1.80;;
44137;SDS011;29800;55.942;37.314;2023-12-20T10:40:35;2.47;;;1.33;;
44137;SDS011;29800;55.942;37.314;2023-12-20T10:43:03;2.60;;;1.60;;
44137;SDS011;29800;55.942;37.314;2023-12-20T10:45:30;1.92;;;1.33;;
44137;SDS011;29800;55.942;37.314;2023-12-20T10:47:57;2.42;;;1.35;;
44137;SDS011;29800;55.942;37.314;2023-12-20T10:50:27;2.42;;;1.50;;
44137;SDS011;29800;55.942;37.314;2023-12-20T10:52:55;3.17;;;1.83;;
44137;SDS011;29800;55.942;37.314;2023-12-20T10:55:23;2.70;;;1.58;;
44137;SDS011;29800;55.942;37.314;2023-12-20T10:58:23;4.00;;;1.85;;
44137;SDS011;29800;55.942;37.314;2023-12-20T11:00:45;3.07;;;1.87;;
44137;SDS011;29800;55.942;37.314;2023-12-20T11:03:17;3.45;;;1.85;;
44137;SDS011;29800;55.942;37.314;2023-12-20T11:11:59;4.63;;;3.05;;
44137;SDS011;29800;55.942;37.314;2023-12-20T11:17:12;3.25;;;1.95;;
44137;SDS011;29800;55.942;37.314;2023-12-20T11:22:25;4.20;;;1.65;;
44137;SDS011;29800;55.942;37.314;2023-12-20T11:25:14;4.38;;;1.50;;
44137;SDS011;29800;55.942;37.314;2023-12-20T11:27:41;2.83;;;1.70;;
44137;SDS011;29800;55.942;37.314;2023-12-20T11:30:11;3.42;;;1.90;;
44137;SDS011;29800;55.942;37.314;2023-12-20T11:32:40;4.50;;;1.90;;
44137;SDS011;29800;55.942;37.314;2023-12-20T11:37:37;3.88;;;2.30;;
44137;SDS011;29800;55.942;37.314;2023-12-20T11:40:06;7.68;;;5.10;;
44137;SDS011;29800;55.942;37.314;2023-12-20T11:42:41;12.15;;;9.70;;
44137;SDS011;29800;55.942;37.314;2023-12-20T11:45:12;8.02;;;6.53;;
44137;SDS011;29800;55.942;37.314;2023-12-20T11:47:50;3.38;;;2.40;;
44137;SDS011;29800;55.942;37.314;2023-12-20T11:50:19;6.20;;;3.47;;
44137;SDS011;29800;55.942;37.314;2023-12-20T11:52:47;3.85;;;2.58;;
44137;SDS011;29800;55.942;37.314;2023-12-20T11:55:14;3.17;;;1.92;;
44137;SDS011;29800;55.942;37.314;2023-12-20T11:57:41;4.40;;;1.90;;
44137;SDS011;29800;55.942;37.314;2023-12-20T12:00:09;10.43;;;2.22;;
44137;SDS011;29800;55.942;37.314;2023-12-20T12:02:39;3.33;;;1.80;;
44137;SDS011;29800;55.942;37.314;2023-12-20T12:05:06;4.28;;;1.50;;
44137;SDS011;29800;55.942;37.314;2023-12-20T12:07:33;2.30;;;1.40;;
44137;SDS011;29800;55.942;37.314;2023-12-20T12:10:01;3.55;;;1.20;;
44137;SDS011;29800;55.942;37.314;2023-12-20T12:12:29;3.55;;;1.50;;
44137;SDS011;29800;55.942;37.314;2023-12-20T12:14:56;3.40;;;1.40;;
44137;SDS011;29800;55.942;37.314;2023-12-20T12:17:24;1.98;;;1.35;;
44137;SDS011;29800;55.942;37.314;2023-12-20T12:19:51;2.20;;;1.35;;
44137;SDS011;29800;55.942;37.314;2023-12-20T12:22:31;3.13;;;1.10;;
44137;SDS011;29800;55.942;37.314;2023-12-20T12:24:59;1.38;;;1.00;;
44137;SDS011;29800;55.942;37.314;2023-12-20T12:27:36;2.17;;;1.20;;
44137;SDS011;29800;55.942;37.314;2023-12-20T12:30:04;4.15;;;1.20;;
44137;SDS011;29800;55.942;37.314;2023-12-20T12:32:35;1.92;;;1.10;;
44137;SDS011;29800;55.942;37.314;2023-12-20T12:35:03;3.03;;;1.70;;
44137;SDS011;29800;55.942;37.314;2023-12-20T12:37:36;3.45;;;1.70;;
44137;SDS011;29800;55.942;37.314;2023-12-20T12:40:06;2.97;;;1.25;;
44137;SDS011;29800;55.942;37.314;2023-12-20T12:42:36;2.88;;;1.50;;
44137;SDS011;29800;55.942;37.314;2023-12-20T12:45:03;3.72;;;1.48;;
44137;SDS011;29800;55.942;37.314;2023-12-20T12:47:30;2.22;;;1.20;;
44137;SDS011;29800;55.942;37.314;2023-12-20T12:49:57;2.13;;;1.30;;
44137;SDS011;29800;55.942;37.314;2023-12-20T12:52:24;3.33;;;1.80;;
44137;SDS011;29800;55.942;37.314;2023-12-20T12:54:52;3.70;;;2.60;;
44137;SDS011;29800;55.942;37.314;2023-12-20T12:57:19;2.17;;;1.70;;
44137;SDS011;29800;55.942;37.314;2023-12-20T12:59:46;2.45;;;1.33;;
44137;SDS011;29800;55.942;37.314;2023-12-20T13:02:14;3.13;;;1.13;;
44137;SDS011;29800;55.942;37.314;2023-12-20T13:04:41;4.68;;;1.50;;
44137;SDS011;29800;55.942;37.314;2023-12-20T13:07:09;2.47;;;1.40;;
44137;SDS011;29800;55.942;37.314;2023-12-20T13:09:37;2.85;;;1.35;;
44137;SDS011;29800;55.942;37.314;2023-12-20T13:12:07;2.92;;;1.55;;
44137;SDS011;29800;55.942;37.314;2023-12-20T13:14:35;2.88;;;1.40;;
44137;SDS011;29800;55.942;37.314;2023-12-20T13:17:06;3.60;;;1.30;;
44137;SDS011;29800;55.942;37.314;2023-12-20T13:19:33;3.55;;;1.50;;
44137;SDS011;29800;55.942;37.314;2023-12-20T13:21:59;2.13;;;1.38;;
44137;SDS011;29800;55.942;37.314;2023-12-20T13:24:26;4.65;;;2.20;;
44137;SDS011;29800;55.942;37.314;2023-12-20T13:26:53;3.55;;;1.90;;
44137;SDS011;29800;55.942;37.314;2023-12-20T13:29:19;4.80;;;3.13;;
44137;SDS011;29800;55.942;37.314;2023-12-20T13:31:47;3.92;;;2.58;;
44137;SDS011;29800;55.942;37.314;2023-12-20T13:34:14;3.90;;;1.88;;
44137;SDS011;29800;55.942;37.314;2023-12-20T13:36:43;3.70;;;1.63;;
44137;SDS011;29800;55.942;37.314;2023-12-20T13:39:13;4.60;;;1.50;;
44137;SDS011;29800;55.942;37.314;2023-12-20T13:41:40;2.50;;;1.20;;
44137;SDS011;29800;55.942;37.314;2023-12-20T13:44:06;6.40;;;2.42;;
44137;SDS011;29800;55.942;37.314;2023-12-20T13:46:33;4.22;;;2.17;;
44137;SDS011;29800;55.942;37.314;2023-12-20T13:49:01;37.97;;;21.75;;
44137;SDS011;29800;55.942;37.314;2023-12-20T13:51:27;76.68;;;42.50;;
44137;SDS011;29800;55.942;37.314;2023-12-20T13:53:54;78.88;;;45.88;;
44137;SDS011;29800;55.942;37.314;2023-12-20T13:56:21;65.88;;;41.38;;
44137;SDS011;29800;55.942;37.314;2023-12-20T13:58:49;18.50;;;12.90;;
44137;SDS011;29800;55.942;37.314;2023-12-20T14:01:16;9.13;;;5.90;;
44137;SDS011;29800;55.942;37.314;2023-12-20T14:03:43;4.35;;;2.13;;
44137;SDS011;29800;55.942;37.314;2023-12-20T14:06:10;5.28;;;1.95;;
44137;SDS011;29800;55.942;37.314;2023-12-20T14:08:36;3.70;;;1.38;;
44137;SDS011;29800;55.942;37.314;2023-12-20T14:11:03;4.30;;;1.50;;
44137;SDS011;29800;55.942;37.314;2023-12-20T14:13:30;2.75;;;1.20;;
44137;SDS011;29800;55.942;37.314;2023-12-20T14:15:57;2.97;;;1.10;;
44137;SDS011;29800;55.942;37.314;2023-12-20T14:18:26;4.35;;;2.05;;
44137;SDS011;29800;55.942;37.314;2023-12-20T14:20:53;1.98;;;1.13;;
44137;SDS011;29800;55.942;37.314;2023-12-20T14:23:19;2.08;;;0.80;;
44137;SDS011;29800;55.942;37.314;2023-12-20T14:25:46;2.72;;;1.10;;
44137;SDS011;29800;55.942;37.314;2023-12-20T14:28:13;2.47;;;0.90;;
44137;SDS011;29800;55.942;37.314;2023-12-20T14:30:40;3.83;;;1.10;;
44137;SDS011;29800;55.942;37.314;2023-12-20T14:33:07;2.75;;;0.90;;
44137;SDS011;29800;55.942;37.314;2023-12-20T14:35:33;2.45;;;1.17;;
44137;SDS011;29800;55.942;37.314;2023-12-20T14:38:00;2.90;;;1.95;;
44137;SDS011;29800;55.942;37.314;2023-12-20T14:40:27;4.10;;;1.65;;
44137;SDS011;29800;55.942;37.314;2023-12-20T14:42:53;3.50;;;2.17;;
44137;SDS011;29800;55.942;37.314;2023-12-20T14:45:20;3.28;;;2.30;;
44137;SDS011;29800;55.942;37.314;2023-12-20T14:47:47;5.05;;;1.90;;
44137;SDS011;29800;55.942;37.314;2023-12-20T14:50:14;2.30;;;1.13;;
44137;SDS011;29800;55.942;37.314;2023-12-20T14:52:44;2.20;;;1.20;;
44137;SDS011;29800;55.942;37.314;2023-12-20T14:55:11;2.20;;;1.23;;
44137;SDS011;29800;55.942;37.314;2023-12-20T14:57:38;3.55;;;1.30;;
44137;SDS011;29800;55.942;37.314;2023-12-20T15:00:05;4.07;;;1.25;;
44137;SDS011;29800;55.942;37.314;2023-12-20T15:02:33;3.85;;;1.73;;
44137;SDS011;29800;55.942;37.314;2023-12-20T15:05:00;5.30;;;3.20;;
44137;SDS011;29800;55.942;37.314;2023-12-20T15:07:29;18.42;;;15.55;;
44137;SDS011;29800;55.942;37.314;2023-12-20T15:09:59;22.52;;;16.98;;
44137;SDS011;29800;55.942;37.314;2023-12-20T15:12:29;14.63;;;12.18;;
44137;SDS011;29800;55.942;37.314;2023-12-20T15:14:55;5.82;;;4.30;;
44137;SDS011;29800;55.942;37.314;2023-12-20T15:17:22;3.97;;;2.00;;
44137;SDS011;29800;55.942;37.314;2023-12-20T15:19:49;2.45;;;1.38;;
44137;SDS011;29800;55.942;37.314;2023-12-20T15:22:15;6.40;;;1.40;;